Time;durP1;ratioP1;P1;durP2;ratioP2;P2;SDS_P1;SDS_P2;PMS_P1;PMS_P2;Temp;Humidity;BMP_temperature;BMP_pressure;BME280_temperature;BME280_humidity;BME280_pressure;Samples;Min_cycle;Max_cycle;Signal;HPM_P1;HPM_P2
2022/09/09 00:01:00;;;;;;;0.55;0.55;;;14.80;99.90;;;;;;5047974;28;20437;-80
2022/09/09 00:03:32;;;;;;;0.10;0.10;;;14.70;99.90;;;;;;5053474;28;20443;-80
2022/09/09 00:06:18;;;;;;;0.30;0.30;;;14.60;99.90;;;;;;5062232;28;20480;-79
2022/09/09 00:09:11;;;;;;;0.20;0.20;;;14.50;99.90;;;;;;5034074;28;20490;-80
2022/09/09 00:11:50;;;;;;;0.20;0.20;;;14.40;99.90;;;;;;5052717;28;20431;-80
2022/09/09 00:14:44;;;;;;;0.30;0.30;;;14.30;99.90;;;;;;5035801;28;20426;-79
2022/09/09 00:17:59;;;;;;;0.50;0.30;;;14.20;99.90;;;;;;5042364;28;20444;-79
2022/09/09 00:20:33;;;;;;;0.30;0.20;;;14.10;99.90;;;;;;5035195;28;20905;-80
2022/09/09 00:23:19;;;;;;;0.20;0.20;;;14.10;99.90;;;;;;5068527;28;20522;-80
2022/09/09 00:26:12;;;;;;;0.20;0.20;;;14.00;99.90;;;;;;5060281;28;20458;-81
2022/09/09 00:29:07;;;;;;;1.10;0.30;;;14.00;99.90;;;;;;5068016;28;21030;-81
2022/09/09 00:31:39;;;;;;;0.25;0.25;;;13.90;99.90;;;;;;5057108;28;20440;-80
2022/09/09 00:34:13;;;;;;;0.35;0.35;;;13.80;99.90;;;;;;5046842;28;20434;-81
2022/09/09 00:36:43;;;;;;;0.20;0.20;;;13.80;99.90;;;;;;5066831;28;20835;-81
2022/09/09 00:39:20;;;;;;;0.57;0.22;;;13.80;99.90;;;;;;5037837;28;20427;-80
2022/09/09 00:42:16;;;;;;;0.20;0.20;;;13.80;99.90;;;;;;5074576;28;20427;-80
2022/09/09 00:45:09;;;;;;;0.40;0.40;;;13.70;99.90;;;;;;5050604;28;20476;-80
2022/09/09 00:47:50;;;;;;;0.20;0.20;;;13.70;99.90;;;;;;5070430;28;20515;-80
2022/09/09 00:50:38;;;;;;;0.25;0.25;;;13.70;99.90;;;;;;5046740;28;20438;-81
2022/09/09 00:53:30;;;;;;;0.80;0.40;;;13.70;99.90;;;;;;5067928;28;20431;-81
2022/09/09 00:55:59;;;;;;;0.30;0.30;;;13.70;99.90;;;;;;5073726;28;20485;-78
2022/09/09 00:58:29;;;;;;;0.30;0.30;;;13.70;99.90;;;;;;5047968;28;20421;-79
2022/09/09 01:01:11;;;;;;;2.10;0.40;;;13.60;99.90;;;;;;5052808;28;20437;-79
2022/09/09 01:03:55;;;;;;;0.20;0.20;;;13.60;99.90;;;;;;5064713;28;20508;-79
2022/09/09 01:06:34;;;;;;;0.22;0.22;;;13.60;99.90;;;;;;5066433;28;20433;-79
2022/09/09 01:09:36;;;;;;;0.20;0.20;;;13.50;99.90;;;;;;5066064;28;20457;-79
2022/09/09 01:12:07;;;;;;;0.10;0.10;;;13.50;99.90;;;;;;5047447;28;20440;-79
2022/09/09 01:14:34;;;;;;;0.10;0.10;;;13.50;99.90;;;;;;5061858;28;20433;-78
2022/09/09 01:17:24;;;;;;;0.20;0.20;;;13.50;99.90;;;;;;5036393;28;20420;-79
2022/09/09 01:20:13;;;;;;;0.90;0.30;;;13.50;99.90;;;;;;5046198;28;20870;-79
2022/09/09 01:23:20;;;;;;;0.23;0.23;;;13.40;99.90;;;;;;5044995;28;20443;-78
2022/09/09 01:26:05;;;;;;;0.60;0.30;;;13.30;99.90;;;;;;5002167;28;20428;-78
2022/09/09 01:28:35;;;;;;;0.70;0.20;;;13.20;99.90;;;;;;5052666;28;20439;-79
2022/09/09 01:31:05;;;;;;;0.10;0.10;;;13.20;99.90;;;;;;5046363;28;20437;-78
2022/09/09 01:33:32;;;;;;;0.10;0.10;;;13.10;99.90;;;;;;5064912;28;20427;-79
2022/09/09 01:36:10;;;;;;;0.28;0.28;;;13.10;99.90;;;;;;5063961;28;20439;-78
2022/09/09 01:38:37;;;;;;;0.20;0.20;;;13.00;99.90;;;;;;5068783;28;20439;-78
2022/09/09 01:41:04;;;;;;;0.30;0.30;;;13.00;99.90;;;;;;5067176;28;20489;-79
2022/09/09 01:43:31;;;;;;;0.30;0.30;;;13.00;99.90;;;;;;5065818;28;20451;-79
2022/09/09 01:46:01;;;;;;;0.20;0.20;;;13.00;99.90;;;;;;5062824;28;20431;-79
2022/09/09 01:48:29;;;;;;;1.50;0.30;;;12.90;99.90;;;;;;5063137;28;20442;-79
2022/09/09 01:50:56;;;;;;;0.20;0.20;;;13.00;99.90;;;;;;5063049;28;20443;-79
2022/09/09 01:53:23;;;;;;;0.30;0.30;;;12.90;99.90;;;;;;5064113;28;20491;-79
2022/09/09 01:56:34;;;;;;;0.50;0.50;;;12.90;99.90;;;;;;5064354;28;20442;-79
2022/09/09 01:59:07;;;;;;;0.75;0.30;;;12.80;99.90;;;;;;5030506;28;20470;-79
2022/09/09 02:02:11;;;;;;;0.30;0.30;;;12.80;99.90;;;;;;5062913;28;20484;-79
2022/09/09 02:04:54;;;;;;;0.35;0.35;;;12.80;99.90;;;;;;5078263;28;20432;-78
2022/09/09 02:07:39;;;;;;;0.30;0.13;;;12.80;99.90;;;;;;5057734;28;20524;-79
2022/09/09 02:10:30;;;;;;;0.20;0.20;;;12.70;99.90;;;;;;5068643;28;21172;-80
2022/09/09 02:13:19;;;;;;;0.25;0.25;;;12.70;99.90;;;;;;5058241;28;20481;-78
2022/09/09 02:15:56;;;;;;;0.20;0.20;;;12.80;99.90;;;;;;5043899;28;20456;-79
2022/09/09 02:18:49;;;;;;;0.30;0.30;;;12.80;99.90;;;;;;5060487;28;21071;-79
2022/09/09 02:21:19;;;;;;;0.10;0.10;;;12.90;99.90;;;;;;5036529;28;20439;-79
2022/09/09 02:23:50;;;;;;;0.22;0.22;;;13.00;99.90;;;;;;5042016;28;20429;-79
2022/09/09 02:26:21;;;;;;;0.30;0.30;;;13.00;99.90;;;;;;5059436;28;20440;-79
2022/09/09 02:28:50;;;;;;;0.40;0.20;;;13.10;99.90;;;;;;5035892;28;20434;-79
2022/09/09 02:31:20;;;;;;;0.30;0.30;;;13.20;99.90;;;;;;5040096;28;20447;-78
2022/09/09 02:33:54;;;;;;;0.38;0.38;;;13.20;99.90;;;;;;5066009;28;20431;-79
2022/09/09 02:36:24;;;;;;;0.20;0.20;;;13.30;99.90;;;;;;5050762;28;20429;-80
2022/09/09 02:38:53;;;;;;;0.30;0.30;;;13.40;99.90;;;;;;5068054;28;20427;-79
2022/09/09 02:41:26;;;;;;;0.38;0.38;;;13.50;99.90;;;;;;5046556;28;20441;-79
2022/09/09 02:43:52;;;;;;;0.20;0.20;;;13.50;99.90;;;;;;5048031;28;20428;-79
2022/09/09 02:46:35;;;;;;;0.40;0.40;;;13.60;99.90;;;;;;5037589;28;20922;-79
2022/09/09 02:49:09;;;;;;;0.30;0.30;;;13.60;99.90;;;;;;5051437;28;20811;-79
2022/09/09 02:51:59;;;;;;;0.30;0.30;;;13.50;99.90;;;;;;5052408;28;20434;-79
2022/09/09 02:54:33;;;;;;;0.90;0.40;;;13.50;99.90;;;;;;5064433;28;20921;-78
2022/09/09 02:57:15;;;;;;;0.32;0.32;;;13.40;99.90;;;;;;5069599;28;20435;-79
2022/09/09 02:59:46;;;;;;;0.32;0.32;;;13.40;99.90;;;;;;5039492;28;20436;-78
2022/09/09 03:02:13;;;;;;;0.32;0.32;;;13.40;99.90;;;;;;5063157;28;20776;-78
2022/09/09 03:04:44;;;;;;;0.20;0.20;;;13.40;99.90;;;;;;5070362;28;20431;-78
2022/09/09 03:07:11;;;;;;;0.40;0.40;;;13.30;99.90;;;;;;5068021;28;20975;-79
2022/09/09 03:09:38;;;;;;;0.30;0.30;;;13.30;99.90;;;;;;5069265;28;20439;-78
2022/09/09 03:12:08;;;;;;;0.37;0.37;;;13.20;99.90;;;;;;5072132;28;20439;-79
2022/09/09 03:14:35;;;;;;;0.40;0.40;;;13.20;99.90;;;;;;5066359;28;20434;-79
2022/09/09 03:17:02;;;;;;;0.80;0.40;;;13.20;99.90;;;;;;5064182;28;20431;-78
2022/09/09 03:19:29;;;;;;;0.30;0.30;;;13.20;99.90;;;;;;5046830;28;20532;-78
2022/09/09 03:21:57;;;;;;;0.30;0.30;;;13.10;99.90;;;;;;5049152;28;20917;-79
2022/09/09 03:24:25;;;;;;;0.60;0.40;;;13.10;99.90;;;;;;5069351;28;20984;-79
2022/09/09 03:26:51;;;;;;;2.70;0.32;;;13.10;99.90;;;;;;5066998;28;20488;-79
2022/09/09 03:29:18;;;;;;;0.40;0.40;;;13.10;99.90;;;;;;5061882;28;20437;-78
2022/09/09 03:31:46;;;;;;;0.20;0.20;;;13.20;99.90;;;;;;5060419;28;20431;-79
2022/09/09 03:34:15;;;;;;;0.17;0.17;;;13.30;99.90;;;;;;5066223;28;20424;-79
2022/09/09 03:36:46;;;;;;;0.27;0.27;;;13.40;99.90;;;;;;5050448;28;20425;-79
2022/09/09 03:39:14;;;;;;;0.38;0.30;;;13.60;99.90;;;;;;5067996;28;21203;-79
2022/09/09 03:41:40;;;;;;;0.30;0.30;;;13.70;99.90;;;;;;5062807;28;20446;-79
2022/09/09 03:44:07;;;;;;;0.30;0.30;;;13.80;99.90;;;;;;5065568;28;20431;-79
2022/09/09 03:46:34;;;;;;;0.40;0.40;;;13.90;99.90;;;;;;5062782;28;20487;-80
2022/09/09 03:49:01;;;;;;;0.20;0.20;;;14.00;99.90;;;;;;5066539;28;20431;-79
2022/09/09 03:51:28;;;;;;;0.17;0.17;;;14.00;99.90;;;;;;5042954;28;20432;-80
2022/09/09 03:53:56;;;;;;;0.13;0.13;;;14.00;99.90;;;;;;5066053;28;20440;-79
2022/09/09 03:56:26;;;;;;;0.40;0.40;;;14.00;99.90;;;;;;5044597;28;20437;-79
2022/09/09 03:58:53;;;;;;;0.22;0.22;;;14.00;99.90;;;;;;5059434;28;20435;-79
2022/09/09 04:01:20;;;;;;;0.30;0.30;;;13.90;99.90;;;;;;5066920;28;20449;-79
2022/09/09 04:03:47;;;;;;;0.30;0.30;;;13.90;99.90;;;;;;5067200;28;20519;-79
2022/09/09 04:06:14;;;;;;;0.40;0.40;;;13.80;99.90;;;;;;5056231;28;20513;-79
2022/09/09 04:08:41;;;;;;;0.20;0.20;;;13.70;99.90;;;;;;5062050;28;20530;-82
2022/09/09 04:11:09;;;;;;;0.22;0.22;;;13.70;99.90;;;;;;5042883;28;20437;-82
2022/09/09 04:13:38;;;;;;;0.22;0.22;;;13.60;99.90;;;;;;5066459;28;20446;-81
2022/09/09 04:16:06;;;;;;;0.20;0.20;;;13.60;99.90;;;;;;5070878;28;20912;-82
2022/09/09 04:18:32;;;;;;;0.60;0.40;;;13.50;99.90;;;;;;5051762;28;20433;-82
2022/09/09 04:20:59;;;;;;;0.25;0.25;;;13.60;99.90;;;;;;5083504;28;20954;-82
2022/09/09 04:23:31;;;;;;;0.15;0.15;;;13.60;99.90;;;;;;5071849;28;20745;-81
2022/09/09 04:25:58;;;;;;;0.30;0.30;;;13.70;99.90;;;;;;5043322;28;20449;-81
2022/09/09 04:28:28;;;;;;;1.20;0.20;;;13.70;99.90;;;;;;5051498;28;21128;-82
2022/09/09 04:30:56;;;;;;;0.30;0.30;;;13.70;99.90;;;;;;5047874;28;20425;-80
2022/09/09 04:33:26;;;;;;;1.90;0.37;;;13.80;99.90;;;;;;5057485;28;20439;-82
2022/09/09 04:35:53;;;;;;;0.22;0.22;;;13.80;99.90;;;;;;5044579;28;20432;-81
2022/09/09 04:38:22;;;;;;;0.25;0.25;;;13.80;99.90;;;;;;5043179;28;20440;-82
2022/09/09 04:40:51;;;;;;;0.50;0.40;;;13.80;99.90;;;;;;5036188;28;20443;-81
2022/09/09 04:43:22;;;;;;;0.30;0.30;;;13.70;99.90;;;;;;5038866;28;20451;-81
2022/09/09 04:45:52;;;;;;;0.30;0.30;;;13.60;99.90;;;;;;5032480;28;20439;-82
2022/09/09 04:48:20;;;;;;;0.30;0.30;;;13.60;99.90;;;;;;5042230;28;20431;-81
2022/09/09 04:51:05;;;;;;;0.30;0.30;;;13.50;99.90;;;;;;5041973;28;20525;-82
2022/09/09 04:53:33;;;;;;;0.80;0.23;;;13.40;99.90;;;;;;5039291;28;20767;-81
2022/09/09 04:56:06;;;;;;;0.20;0.20;;;13.30;99.90;;;;;;5039299;28;21006;-82
2022/09/09 04:58:35;;;;;;;0.30;0.30;;;13.20;99.90;;;;;;5040182;28;20521;-81
2022/09/09 05:01:10;;;;;;;0.30;0.30;;;13.20;99.90;;;;;;5042066;28;20455;-81
2022/09/09 05:03:37;;;;;;;0.50;0.50;;;13.10;99.90;;;;;;5038228;28;20870;-81
2022/09/09 05:06:09;;;;;;;0.10;0.10;;;13.00;99.90;;;;;;5055153;28;20445;-81
2022/09/09 05:08:40;;;;;;;0.38;0.38;;;13.00;99.90;;;;;;5037471;28;22969;-81
2022/09/09 05:11:36;;;;;;;0.30;0.30;;;13.00;99.90;;;;;;5054944;28;20438;-81
2022/09/09 05:14:03;;;;;;;0.68;0.50;;;13.10;99.90;;;;;;5037777;28;20441;-83
2022/09/09 05:16:31;;;;;;;0.13;0.13;;;13.20;99.90;;;;;;5041380;28;20434;-83
2022/09/09 05:18:58;;;;;;;0.20;0.20;;;13.30;99.90;;;;;;5043698;28;20447;-82
2022/09/09 05:21:30;;;;;;;0.32;0.32;;;13.30;99.90;;;;;;5047034;28;20436;-82
2022/09/09 05:23:57;;;;;;;0.45;0.45;;;13.40;99.90;;;;;;5044893;28;20431;-83
2022/09/09 05:26:24;;;;;;;0.30;0.30;;;13.50;99.90;;;;;;5060816;28;20432;-83
2022/09/09 05:28:51;;;;;;;0.32;0.32;;;13.70;99.90;;;;;;5037334;28;20464;-83
2022/09/09 05:31:21;;;;;;;0.38;0.38;;;13.80;99.90;;;;;;5038581;28;21060;-83
2022/09/09 05:33:51;;;;;;;0.30;0.30;;;13.80;99.90;;;;;;5038051;28;20789;-83
2022/09/09 05:36:21;;;;;;;0.50;0.50;;;13.90;99.90;;;;;;5038187;28;20522;-83
2022/09/09 05:38:49;;;;;;;0.35;0.35;;;13.90;99.90;;;;;;5060377;28;20435;-83
2022/09/09 05:41:23;;;;;;;0.30;0.30;;;13.90;99.90;;;;;;5044398;28;20429;-82
2022/09/09 05:43:53;;;;;;;0.32;0.30;;;13.90;99.90;;;;;;5042119;28;21196;-83
2022/09/09 05:46:21;;;;;;;0.30;0.30;;;14.00;99.90;;;;;;5041824;28;20441;-83
2022/09/09 05:48:51;;;;;;;0.30;0.30;;;14.10;99.90;;;;;;5042421;28;20469;-83
2022/09/09 05:51:23;;;;;;;0.30;0.30;;;14.20;99.90;;;;;;5032633;28;20528;-82
2022/09/09 05:53:51;;;;;;;0.28;0.28;;;14.20;99.90;;;;;;5063369;28;20793;-83
2022/09/09 05:56:24;;;;;;;0.10;0.10;;;14.20;99.90;;;;;;5034170;28;20437;-83
2022/09/09 05:58:53;;;;;;;0.20;0.20;;;14.20;99.90;;;;;;5038371;28;20626;-83
2022/09/09 06:01:23;;;;;;;0.20;0.20;;;14.30;99.90;;;;;;5058910;28;20454;-82
2022/09/09 06:03:51;;;;;;;1.63;0.30;;;14.60;99.90;;;;;;5035126;28;20832;-83
2022/09/09 06:06:32;;;;;;;0.43;0.20;;;15.10;99.90;;;;;;5063098;28;20859;-82
2022/09/09 06:08:59;;;;;;;0.30;0.30;;;15.80;99.90;;;;;;5045164;28;20944;-84
2022/09/09 06:11:31;;;;;;;0.30;0.30;;;16.30;99.90;;;;;;5065411;28;20443;-82
2022/09/09 06:13:58;;;;;;;0.30;0.30;;;16.30;99.90;;;;;;5043857;28;20439;-83
2022/09/09 06:16:28;;;;;;;0.30;0.30;;;16.20;99.90;;;;;;5036968;28;20443;-83
2022/09/09 06:18:57;;;;;;;0.30;0.30;;;16.20;99.90;;;;;;5043059;28;20760;-83
2022/09/09 06:21:38;;;;;;;0.30;0.30;;;16.00;99.90;;;;;;5030755;28;20439;-83
2022/09/09 06:24:05;;;;;;;0.70;0.30;;;15.90;99.90;;;;;;5044541;28;20452;-83
2022/09/09 06:26:42;;;;;;;0.30;0.30;;;15.90;99.90;;;;;;5044707;28;20437;-82
2022/09/09 06:29:11;;;;;;;0.40;0.40;;;15.80;99.90;;;;;;5063740;28;20937;-82
2022/09/09 06:31:41;;;;;;;0.32;0.32;;;15.80;99.90;;;;;;5048506;28;20823;-82
2022/09/09 06:34:08;;;;;;;0.30;0.30;;;15.80;99.90;;;;;;5039613;28;20437;-83
2022/09/09 06:36:37;;;;;;;0.30;0.30;;;16.00;99.90;;;;;;5059215;28;20428;-83
2022/09/09 06:39:06;;;;;;;0.20;0.20;;;16.10;99.90;;;;;;5065462;28;20440;-82
2022/09/09 06:41:38;;;;;;;0.30;0.30;;;16.20;99.90;;;;;;5037723;28;20429;-82
2022/09/09 06:44:05;;;;;;;0.30;0.30;;;16.40;99.90;;;;;;5043946;28;20433;-83
2022/09/09 06:46:35;;;;;;;0.70;0.43;;;16.60;99.90;;;;;;5039342;28;20460;-82
2022/09/09 06:49:02;;;;;;;0.20;0.20;;;16.80;99.90;;;;;;5046574;28;20729;-82
2022/09/09 06:51:31;;;;;;;0.22;0.22;;;16.90;99.90;;;;;;5032410;28;20439;-82
2022/09/09 06:54:01;;;;;;;0.40;0.30;;;16.90;99.90;;;;;;5037043;28;20435;-83
2022/09/09 06:56:31;;;;;;;0.20;0.20;;;16.70;99.90;;;;;;5036325;28;21110;-82
2022/09/09 06:59:03;;;;;;;0.30;0.30;;;16.60;99.90;;;;;;5049379;28;20458;-83
2022/09/09 07:01:36;;;;;;;1.08;0.38;;;16.40;99.90;;;;;;5050789;28;20935;-82
2022/09/09 07:04:07;;;;;;;0.30;0.30;;;16.20;99.90;;;;;;5048842;28;20433;-82
2022/09/09 07:06:36;;;;;;;2.00;0.30;;;16.10;99.90;;;;;;5036780;28;20441;-82
2022/09/09 07:09:06;;;;;;;0.13;0.13;;;16.10;99.90;;;;;;5041502;28;20447;-82
2022/09/09 07:11:41;;;;;;;0.20;0.20;;;16.20;99.90;;;;;;5034842;28;20514;-83
2022/09/09 07:14:08;;;;;;;1.10;0.30;;;16.30;99.90;;;;;;5039795;28;20434;-83
2022/09/09 07:16:37;;;;;;;0.30;0.30;;;16.40;99.90;;;;;;5049557;28;20496;-82
2022/09/09 07:19:04;;;;;;;0.13;0.13;;;16.50;99.90;;;;;;5040847;28;20721;-82
2022/09/09 07:21:32;;;;;;;0.30;0.30;;;16.60;99.90;;;;;;5043698;28;20451;-82
2022/09/09 07:24:00;;;;;;;0.30;0.30;;;16.60;99.90;;;;;;5040576;28;21046;-83
2022/09/09 07:26:30;;;;;;;0.50;0.28;;;16.70;99.90;;;;;;5036905;28;20441;-82
2022/09/09 07:28:57;;;;;;;0.70;0.30;;;16.80;99.90;;;;;;5032266;28;20441;-82
2022/09/09 07:31:32;;;;;;;0.30;0.30;;;17.00;99.90;;;;;;5037276;28;20939;-81
2022/09/09 07:34:00;;;;;;;0.38;0.38;;;17.30;99.90;;;;;;5058852;28;20440;-81
2022/09/09 07:36:33;;;;;;;0.30;0.30;;;17.40;99.90;;;;;;5057276;28;20437;-82
2022/09/09 07:39:03;;;;;;;0.30;0.30;;;17.40;99.90;;;;;;5042696;28;20500;-80
2022/09/09 07:41:34;;;;;;;0.50;0.30;;;17.40;99.90;;;;;;5038668;28;20429;-82
2022/09/09 07:44:11;;;;;;;0.20;0.20;;;17.30;99.90;;;;;;5059865;28;20427;-83
2022/09/09 07:46:39;;;;;;;0.47;0.40;;;17.40;99.90;;;;;;5061714;28;20454;-81
2022/09/09 07:49:06;;;;;;;0.30;0.30;;;17.60;99.90;;;;;;5067610;28;20451;-83
2022/09/09 07:51:36;;;;;;;0.30;0.30;;;17.50;99.90;;;;;;5064112;28;20497;-81
2022/09/09 07:54:06;;;;;;;0.40;0.40;;;17.40;99.90;;;;;;5062743;28;20491;-82
2022/09/09 07:56:33;;;;;;;0.30;0.30;;;17.40;99.90;;;;;;5062002;28;20431;-83
2022/09/09 07:59:06;;;;;;;0.30;0.30;;;17.40;99.90;;;;;;5045091;28;21067;-82
2022/09/09 08:01:39;;;;;;;0.60;0.40;;;17.60;99.90;;;;;;5050560;28;20787;-82
2022/09/09 08:04:09;;;;;;;0.30;0.30;;;17.90;99.90;;;;;;5062294;28;20450;-82
2022/09/09 08:06:39;;;;;;;1.00;0.38;;;18.30;99.90;;;;;;5062338;28;20435;-83
2022/09/09 08:09:07;;;;;;;0.33;0.33;;;18.60;99.90;;;;;;5029284;28;20492;-83
2022/09/09 08:11:35;;;;;;;0.50;0.50;;;19.10;99.90;;;;;;5046782;28;20435;-83
2022/09/09 08:14:09;;;;;;;0.30;0.30;;;18.90;99.90;;;;;;5041820;28;20834;-83
2022/09/09 08:16:38;;;;;;;0.30;0.30;;;19.00;99.90;;;;;;5041617;28;20458;-83
2022/09/09 08:19:07;;;;;;;0.30;0.30;;;19.20;99.90;;;;;;5037690;28;20558;-83
2022/09/09 08:21:36;;;;;;;0.30;0.30;;;19.60;99.90;;;;;;5041204;28;20429;-82
2022/09/09 08:24:07;;;;;;;0.30;0.30;;;19.70;99.90;;;;;;5044854;28;20516;-83
2022/09/09 08:26:37;;;;;;;0.30;0.30;;;19.60;99.90;;;;;;5041803;28;20698;-83
2022/09/09 08:29:06;;;;;;;0.40;0.40;;;19.70;99.90;;;;;;5046371;28;20440;-82
2022/09/09 08:31:42;;;;;;;0.30;0.30;;;19.70;99.90;;;;;;5066737;28;20438;-82
2022/09/09 08:34:09;;;;;;;0.40;0.40;;;19.60;99.90;;;;;;5039950;28;20496;-82
2022/09/09 08:36:40;;;;;;;0.35;0.35;;;19.70;99.90;;;;;;5064149;28;20766;-82
2022/09/09 08:39:08;;;;;;;0.30;0.30;;;19.70;99.90;;;;;;5064778;28;20655;-83
2022/09/09 08:41:38;;;;;;;0.30;0.30;;;19.30;99.90;;;;;;5044254;28;20826;-84
2022/09/09 08:44:34;;;;;;;0.20;0.20;;;19.30;99.90;;;;;;5043340;28;20437;-84
2022/09/09 08:47:22;;;;;;;0.20;0.20;;;19.20;99.90;;;;;;5037892;28;20433;-83
2022/09/09 08:50:13;;;;;;;0.40;0.40;;;19.20;99.90;;;;;;5047012;28;20439;-82
2022/09/09 08:53:05;;;;;;;0.30;0.30;;;19.30;99.90;;;;;;5044837;28;20432;-81
2022/09/09 08:55:44;;;;;;;0.30;0.30;;;19.10;99.90;;;;;;5058003;28;20848;-83
2022/09/09 08:58:21;;;;;;;0.40;0.40;;;19.30;99.90;;;;;;5064926;28;20485;-83
2022/09/09 09:01:08;;;;;;;0.30;0.30;;;19.40;99.90;;;;;;5043197;28;20491;-83
2022/09/09 09:03:59;;;;;;;1.50;0.50;;;19.40;99.90;;;;;;5062709;28;20431;-81
2022/09/09 09:06:41;;;;;;;0.35;0.35;;;19.60;99.90;;;;;;5045962;28;20497;-82
2022/09/09 09:09:30;;;;;;;0.30;0.30;;;19.10;99.90;;;;;;5043301;28;20619;-83
2022/09/09 09:12:00;;;;;;;0.40;0.35;;;19.00;99.90;;;;;;5071628;28;20447;-82
2022/09/09 09:14:34;;;;;;;0.28;0.28;;;18.90;99.90;;;;;;5069787;28;20432;-82
2022/09/09 09:17:03;;;;;;;0.20;0.20;;;18.90;99.90;;;;;;5063907;28;20438;-82
2022/09/09 09:19:37;;;;;;;0.20;0.20;;;19.00;99.90;;;;;;5051716;28;20508;-82
2022/09/09 09:22:21;;;;;;;0.30;0.30;;;19.10;99.90;;;;;;5047987;28;20760;-82
2022/09/09 09:24:55;;;;;;;2.50;0.32;;;19.00;99.90;;;;;;5041803;28;20511;-82
2022/09/09 09:27:33;;;;;;;0.45;0.40;;;18.90;99.90;;;;;;5050213;28;20436;-81
2022/09/09 09:30:12;;;;;;;0.20;0.20;;;18.90;99.90;;;;;;5042410;28;20640;-82
2022/09/09 09:33:01;;;;;;;0.40;0.25;;;19.10;99.90;;;;;;5059349;28;22473;-82
2022/09/09 09:35:28;;;;;;;0.30;0.30;;;19.30;99.90;;;;;;5063069;28;20435;-82
2022/09/09 09:37:55;;;;;;;0.50;0.35;;;19.60;99.90;;;;;;5039585;28;20508;-81
2022/09/09 09:40:57;;;;;;;0.75;0.30;;;;;;;;;;5039877;28;20454;-83
2022/09/09 09:43:29;;;;;;;0.40;0.40;;;19.80;99.90;;;;;;5065925;28;20477;-83
2022/09/09 09:45:57;;;;;;;0.40;0.38;;;;;;;;;;5044920;28;20915;-83
2022/09/09 09:48:45;;;;;;;0.47;0.38;;;;;;;;;;5045890;28;20487;-83
2022/09/09 09:51:15;;;;;;;2.83;0.30;;;;;;;;;;5068642;28;20827;-81
2022/09/09 09:53:43;;;;;;;0.52;0.32;;;;;;;;;;5047201;28;20520;-82
2022/09/09 09:56:11;;;;;;;0.30;0.30;;;;;;;;;;5066916;28;21159;-81
2022/09/09 09:58:38;;;;;;;0.30;0.30;;;;;;;;;;5069292;28;20796;-82
2022/09/09 10:01:06;;;;;;;0.30;0.30;;;;;;;;;;5047046;28;20425;-82
2022/09/09 10:03:39;;;;;;;0.30;0.30;;;;;;;;;;5067975;28;20492;-82
2022/09/09 10:06:06;;;;;;;0.30;0.30;;;;;;;;;;5049676;28;20447;-83
2022/09/09 10:08:47;;;;;;;0.20;0.20;;;;;;;;;;5066262;28;20431;-83
2022/09/09 10:11:18;;;;;;;0.80;0.20;;;;;;;;;;5059871;28;20975;-83
2022/09/09 10:13:54;;;;;;;0.30;0.30;;;;;;;;;;5067678;28;20431;-83
2022/09/09 10:16:21;;;;;;;1.10;0.20;;;;;;;;;;5038395;28;20489;-82
2022/09/09 10:19:00;;;;;;;0.40;0.40;;;;;;;;;;5062778;28;20471;-82
2022/09/09 10:21:27;;;;;;;0.30;0.30;;;;;;;;;;5069186;28;20430;-82
2022/09/09 10:24:28;;;;;;;0.40;0.30;;;;;;;;;;5061923;28;20444;-81
2022/09/09 10:27:28;;;;;;;0.40;0.40;;;;;;;;;;4964095;28;20439;-82
2022/09/09 10:30:24;;;;;;;0.30;0.30;;;;;;;;;;4907939;29;20441;-82
2022/09/09 10:32:55;;;;;;;0.50;0.38;;;;;;;;;;4871817;29;20485;-83
2022/09/09 10:35:25;;;;;;;0.40;0.40;;;;;;;;;;4866958;29;20630;-83
2022/09/09 10:37:55;;;;;;;0.50;0.50;;;;;;;;;;4850718;29;20832;-83
2022/09/09 10:40:37;;;;;;;0.40;0.40;;;;;;;;;;4857305;29;20890;-82
2022/09/09 10:43:17;;;;;;;0.20;0.20;;;;;;;;;;4861168;29;20440;-83
2022/09/09 10:45:50;;;;;;;0.60;0.50;;;;;;;;;;4871053;29;21047;-83
2022/09/09 10:48:31;;;;;;;0.30;0.30;;;;;;;;;;4871518;29;20461;-82
2022/09/09 10:51:17;;;;;;;0.20;0.20;;;;;;;;;;4870857;29;20468;-82
2022/09/09 10:53:46;;;;;;;0.30;0.30;;;;;;;;;;4871833;29;20452;-82
2022/09/09 10:56:15;;;;;;;0.20;0.20;;;;;;;;;;4871572;29;20448;-83
2022/09/09 10:58:48;;;;;;;0.30;0.30;;;;;;;;;;4868605;29;20444;-82
2022/09/09 11:01:18;;;;;;;0.32;0.30;;;;;;;;;;4874678;29;20454;-83
2022/09/09 11:03:50;;;;;;;0.50;0.40;;;;;;;;;;4884970;29;20447;-82
2022/09/09 11:06:22;;;;;;;0.40;0.20;;;;;;;;;;4983461;28;20989;-82
2022/09/09 11:08:54;;;;;;;0.50;0.28;;;;;;;;;;4996926;28;20462;-81
2022/09/09 11:11:29;;;;;;;0.38;0.38;;;;;;;;;;5067219;28;20562;-81
2022/09/09 11:14:01;;;;;;;0.30;0.30;;;;;;;;;;5047560;28;20467;-82
2022/09/09 11:16:29;;;;;;;0.20;0.20;;;;;;;;;;5065094;28;20462;-81
2022/09/09 11:18:58;;;;;;;0.33;0.33;;;;;;;;;;5037879;28;20434;-81
2022/09/09 11:21:29;;;;;;;0.28;0.28;;;;;;;;;;5061176;28;20505;-83
2022/09/09 11:24:26;;;;;;;0.30;0.20;;;20.60;99.90;;;;;;5045182;28;20973;-82
2022/09/09 11:27:02;;;;;;;0.40;0.30;;;;;;;;;;5054536;28;20435;-82
2022/09/09 11:29:29;;;;;;;0.30;0.30;;;;;;;;;;5062467;28;20456;-82
2022/09/09 11:32:22;;;;;;;0.40;0.30;;;25.00;99.90;;;;;;5070533;28;20492;-82
2022/09/09 11:35:19;;;;;;;0.35;0.30;;;26.30;99.90;;;;;;5052659;28;20443;-81
2022/09/09 11:38:18;;;;;;;0.20;0.20;;;25.70;99.90;;;;;;5062313;28;20435;-82
2022/09/09 11:40:55;;;;;;;0.40;0.17;;;24.60;99.90;;;;;;5061722;28;20432;-82
2022/09/09 11:43:24;;;;;;;1.00;0.20;;;;;;;;;;5062600;28;20493;-82
2022/09/09 11:45:55;;;;;;;0.20;0.20;;;;;;;;;;5064398;28;20427;-82
2022/09/09 11:48:45;;;;;;;0.30;0.30;;;;;;;;;;5059686;28;20485;-83
2022/09/09 11:51:13;;;;;;;1.10;0.40;;;;;;;;;;5055336;28;20435;-82
2022/09/09 11:53:49;;;;;;;0.15;0.15;;;;;;;;;;5038934;28;20440;-82
2022/09/09 11:56:34;;;;;;;0.20;0.20;;;24.10;99.90;;;;;;5057366;28;20891;-82
2022/09/09 11:59:19;;;;;;;0.20;0.20;;;22.50;99.90;;;;;;5061274;28;20522;-82
2022/09/09 12:01:49;;;;;;;0.20;0.20;;;22.30;99.90;;;;;;5060762;28;20469;-82
2022/09/09 12:04:28;;;;;;;0.40;0.40;;;22.00;99.90;;;;;;5059526;28;20477;-81
2022/09/09 12:07:02;;;;;;;1.60;0.28;;;21.70;99.90;;;;;;5042242;28;20429;-82
2022/09/09 12:09:56;;;;;;;0.40;0.40;;;21.80;99.90;;;;;;5064868;28;20437;-82
2022/09/09 12:12:32;;;;;;;0.20;0.20;;;21.70;99.90;;;;;;5054681;28;20435;-81
2022/09/09 12:15:00;;;;;;;0.20;0.20;;;;;;;;;;5033391;28;20436;-82
2022/09/09 12:17:29;;;;;;;0.30;0.30;;;;;;;;;;5066875;28;20911;-81
2022/09/09 12:20:17;;;;;;;0.20;0.20;;;;;;;;;;5044225;28;20453;-83
2022/09/09 12:23:08;;;;;;;0.20;0.20;;;;;;;;;;5045985;28;20427;-82
2022/09/09 12:25:54;;;;;;;0.20;0.20;;;;;;;;;;5028791;28;20464;-82
2022/09/09 12:28:23;;;;;;;0.38;0.38;;;;;;;;;;5055449;28;20429;-81
2022/09/09 12:30:59;;;;;;;0.20;0.20;;;;;;;;;;5035703;28;20994;-81
2022/09/09 12:33:35;;;;;;;0.60;0.20;;;;;;;;;;5054584;28;20720;-80
2022/09/09 12:36:04;;;;;;;0.30;0.30;;;;;;;;;;5038816;28;20433;-82
2022/09/09 12:38:35;;;;;;;0.70;0.40;;;;;;;;;;5033171;28;20417;-81
2022/09/09 12:41:03;;;;;;;0.95;0.25;;;;;;;;;;5037782;28;20429;-83
2022/09/09 12:43:30;;;;;;;0.20;0.20;;;;;;;;;;5055337;28;20441;-82
2022/09/09 12:46:00;;;;;;;0.30;0.20;;;;;;;;;;5057316;28;20435;-83
2022/09/09 12:48:37;;;;;;;0.22;0.22;;;;;;;;;;5059056;28;20941;-83
2022/09/09 12:51:16;;;;;;;0.70;0.20;;;21.50;99.90;;;;;;5064992;28;20444;-82
2022/09/09 12:53:45;;;;;;;0.10;0.10;;;18.90;99.90;;;;;;5061625;28;20499;-81
2022/09/09 12:56:26;;;;;;;0.30;0.30;;;;;;;;;;5067190;28;20955;-82
2022/09/09 12:58:56;;;;;;;0.25;0.25;;;18.60;99.90;;;;;;5035450;28;20441;-82
2022/09/09 13:01:33;;;;;;;0.20;0.20;;;;;;;;;;5040528;28;20453;-82
2022/09/09 13:04:01;;;;;;;0.13;0.13;;;;;;;;;;5066880;28;20510;-83
2022/09/09 13:06:29;;;;;;;0.22;0.22;;;;;;;;;;5069367;28;20433;-83
2022/09/09 13:09:00;;;;;;;0.20;0.20;;;;;;;;;;5065728;28;20423;-82
2022/09/09 13:11:39;;;;;;;0.20;0.20;;;;;;;;;;5046287;28;20841;-83
2022/09/09 13:14:06;;;;;;;0.20;0.20;;;;;;;;;;5030911;28;20497;-83
2022/09/09 13:16:35;;;;;;;0.20;0.20;;;;;;;;;;5043102;28;20445;-82
2022/09/09 13:19:16;;;;;;;1.00;0.30;;;;;;;;;;5058123;28;20447;-82
2022/09/09 13:21:43;;;;;;;0.20;0.20;;;;;;;;;;5058589;28;20524;-82
2022/09/09 13:24:27;;;;;;;0.10;0.10;;;;;;;;;;5037274;28;21288;-83
2022/09/09 13:26:58;;;;;;;0.20;0.20;;;;;;;;;;5035286;28;20799;-84
2022/09/09 13:29:25;;;;;;;0.13;0.13;;;;;;;;;;5046406;28;20433;-80
2022/09/09 13:32:05;;;;;;;0.30;0.20;;;;;;;;;;5070641;28;20431;-80
2022/09/09 13:34:33;;;;;;;0.20;0.20;;;;;;;;;;5040795;28;20433;-80
2022/09/09 13:37:02;;;;;;;0.20;0.20;;;;;;;;;;5042094;28;20811;-83
2022/09/09 13:39:29;;;;;;;0.10;0.10;;;;;;;;;;5059218;28;20433;-82
2022/09/09 13:41:57;;;;;;;0.20;0.20;;;;;;;;;;5042121;28;20425;-83
2022/09/09 13:44:26;;;;;;;0.20;0.20;;;;;;;;;;5028807;28;20439;-81
2022/09/09 13:47:18;;;;;;;0.20;0.20;;;;;;;;;;5064089;28;20450;-82
2022/09/09 13:49:46;;;;;;;0.90;0.30;;;;;;;;;;5047685;28;20508;-83